createdAt,value
2018-08-11T00:01:02.411Z,15.70
2018-08-11T00:05:46.598Z,15.90
2018-08-11T00:10:30.652Z,15.90
2018-08-11T00:15:17.777Z,15.80
2018-08-11T00:20:02.642Z,15.60
2018-08-11T00:24:46.464Z,15.70
2018-08-11T00:29:30.269Z,15.70
2018-08-11T00:34:15.032Z,15.70
2018-08-11T00:38:58.688Z,15.80
2018-08-11T00:43:42.363Z,15.70
2018-08-11T00:48:26.278Z,15.70
2018-08-11T00:53:09.992Z,15.50
2018-08-11T00:57:53.716Z,15.50
2018-08-11T01:02:37.806Z,15.50
2018-08-11T01:07:21.583Z,15.50
2018-08-11T01:12:05.399Z,15.40
2018-08-11T01:16:49.141Z,15.30
2018-08-11T01:21:32.936Z,15.30
2018-08-11T01:26:16.700Z,15.30
2018-08-11T01:31:00.401Z,15.20
2018-08-11T01:35:44.095Z,15.10
2018-08-11T01:40:27.685Z,15.00
2018-08-11T01:45:13.431Z,15.00
2018-08-11T01:49:57.346Z,15.00
2018-08-11T01:54:40.986Z,15.00
2018-08-11T01:59:24.618Z,14.90
2018-08-11T02:04:08.425Z,14.90
2018-08-11T02:08:52.335Z,14.90
2018-08-11T02:13:36.491Z,14.90
2018-08-11T02:18:20.282Z,14.70
2018-08-11T02:23:04.393Z,14.60
2018-08-11T02:27:48.579Z,14.50
2018-08-11T02:32:32.583Z,14.40
2018-08-11T02:37:16.377Z,14.40
2018-08-11T02:42:00.099Z,14.40
2018-08-11T02:46:43.799Z,14.60
2018-08-11T02:51:27.529Z,14.50
2018-08-11T02:56:11.143Z,14.60
2018-08-11T03:00:54.978Z,14.70
2018-08-11T03:05:38.752Z,14.90
2018-08-11T03:10:22.501Z,15.00
2018-08-11T03:15:07.139Z,15.20
2018-08-11T03:19:50.960Z,15.20
2018-08-11T03:24:34.743Z,15.10
2018-08-11T03:29:18.395Z,14.80
2018-08-11T03:34:02.155Z,14.60
2018-08-11T03:38:46.001Z,14.60
2018-08-11T03:43:31.917Z,14.60
2018-08-11T03:48:16.557Z,14.60
2018-08-11T03:53:00.615Z,14.70
2018-08-11T03:57:44.633Z,14.80
2018-08-11T04:02:28.825Z,14.80
2018-08-11T04:07:12.857Z,15.00
2018-08-11T04:11:59.923Z,15.10
2018-08-11T04:16:46.241Z,15.20
2018-08-11T04:21:30.101Z,15.30
2018-08-11T04:26:13.784Z,15.50
2018-08-11T04:30:57.497Z,15.60
2018-08-11T04:35:41.230Z,15.90
2018-08-11T04:40:25.985Z,16.10
2018-08-11T04:45:13.771Z,16.50
2018-08-11T04:49:59.664Z,16.80
2018-08-11T04:54:48.093Z,17.20
2018-08-11T04:59:33.733Z,17.50
2018-08-11T05:04:18.368Z,17.90
2018-08-11T05:09:02.097Z,18.10
2018-08-11T05:13:45.730Z,18.30
2018-08-11T05:18:29.809Z,18.30
2018-08-11T05:23:13.726Z,18.20
2018-08-11T05:27:57.862Z,18.40
2018-08-11T05:32:42.025Z,18.50
2018-08-11T05:37:26.042Z,18.50
2018-08-11T05:42:09.980Z,18.80
2018-08-11T05:46:53.888Z,19.00
2018-08-11T05:51:37.892Z,18.90
2018-08-11T05:56:21.590Z,18.70
2018-08-11T06:01:05.397Z,18.60
2018-08-11T06:05:49.175Z,18.70
2018-08-11T06:10:33.057Z,18.60
2018-08-11T06:15:16.899Z,19.00
2018-08-11T06:20:00.499Z,19.50
2018-08-11T06:24:44.631Z,20.10
2018-08-11T06:29:28.376Z,20.40
2018-08-11T06:34:12.101Z,20.60
2018-08-11T06:38:56.237Z,20.50
2018-08-11T06:43:39.942Z,20.40
2018-08-11T06:48:23.819Z,20.30
2018-08-11T06:53:07.616Z,19.90
2018-08-11T06:57:51.565Z,20.30
2018-08-11T07:02:35.356Z,20.90
2018-08-11T07:07:19.380Z,21.60
2018-08-11T07:12:03.322Z,22.10
2018-08-11T07:16:47.242Z,22.80
2018-08-11T07:21:31.411Z,23.00
2018-08-11T07:26:15.255Z,23.40
2018-08-11T07:30:58.959Z,24.40
2018-08-11T07:35:42.703Z,24.80
2018-08-11T07:40:26.457Z,24.50
2018-08-11T07:45:10.334Z,24.50
2018-08-11T07:49:54.087Z,24.40
2018-08-11T07:54:37.963Z,23.90
2018-08-11T07:59:21.792Z,23.40
2018-08-11T08:04:05.536Z,23.40
2018-08-11T08:08:49.297Z,23.40
2018-08-11T08:13:33.112Z,23.50
2018-08-11T08:18:16.767Z,23.70
2018-08-11T08:23:00.682Z,24.60
2018-08-11T08:27:44.548Z,24.60
2018-08-11T08:32:28.270Z,24.70
2018-08-11T08:37:11.906Z,25.00
2018-08-11T08:41:55.604Z,25.60
2018-08-11T08:46:39.283Z,26.00
2018-08-11T08:51:22.852Z,25.50
2018-08-11T08:56:08.354Z,24.20
2018-08-11T09:00:52.290Z,23.90
2018-08-11T09:05:36.152Z,23.80
2018-08-11T09:10:20.199Z,25.10
2018-08-11T09:15:03.990Z,25.60
2018-08-11T09:19:47.771Z,25.70
2018-08-11T09:24:31.574Z,25.30
2018-08-11T09:29:15.328Z,25.00
2018-08-11T09:33:59.009Z,24.60
2018-08-11T09:38:42.850Z,24.50
2018-08-11T09:43:26.622Z,24.70
2018-08-11T09:48:10.392Z,25.30
2018-08-11T09:52:54.129Z,25.70
2018-08-11T09:57:37.975Z,25.60
2018-08-11T10:02:22.694Z,25.30
2018-08-11T10:07:06.409Z,25.10
2018-08-11T10:11:50.132Z,25.50
2018-08-11T10:16:33.848Z,26.50
2018-08-11T10:21:17.670Z,26.80
2018-08-11T10:26:01.483Z,26.80
2018-08-11T10:30:45.494Z,27.60
2018-08-11T10:35:29.287Z,28.10
2018-08-11T10:40:13.041Z,27.90
2018-08-11T10:44:56.733Z,27.20
2018-08-11T10:49:40.701Z,26.20
2018-08-11T10:54:24.374Z,25.70
2018-08-11T10:59:08.090Z,25.10
2018-08-11T11:03:51.839Z,24.60
2018-08-11T11:08:35.623Z,24.40
2018-08-11T11:13:19.506Z,24.10
2018-08-11T11:18:03.294Z,24.30
2018-08-11T11:22:47.095Z,25.30
2018-08-11T11:27:31.172Z,26.60
2018-08-11T11:32:15.227Z,26.10
2018-08-11T11:36:59.160Z,26.00
2018-08-11T11:41:43.152Z,25.60
2018-08-11T11:46:26.872Z,24.70
2018-08-11T11:51:11.004Z,25.10
2018-08-11T11:55:55.015Z,24.30
2018-08-11T12:00:38.821Z,24.40
2018-08-11T12:05:22.900Z,24.80
2018-08-11T12:10:07.097Z,25.50
2018-08-11T12:14:51.050Z,26.20
2018-08-11T12:19:34.972Z,26.50
2018-08-11T12:24:18.633Z,26.60
2018-08-11T12:29:02.445Z,26.80
2018-08-11T12:33:46.303Z,27.50
2018-08-11T12:38:30.060Z,27.30
2018-08-11T12:43:14.270Z,27.10
2018-08-11T12:47:58.020Z,28.00
2018-08-11T12:52:41.810Z,26.80
2018-08-11T12:57:28.922Z,26.30
2018-08-11T13:02:12.690Z,26.80
2018-08-11T13:06:56.498Z,27.70
2018-08-11T13:11:40.783Z,27.90
2018-08-11T13:16:24.766Z,27.90
2018-08-11T13:21:08.535Z,26.80
2018-08-11T13:25:52.390Z,26.40
2018-08-11T13:30:36.279Z,25.90
2018-08-11T13:35:20.077Z,25.50
2018-08-11T13:40:04.099Z,25.80
2018-08-11T13:44:48.026Z,25.50
2018-08-11T13:49:31.939Z,26.20
2018-08-11T13:54:15.794Z,26.30
2018-08-11T13:58:59.488Z,27.00
2018-08-11T14:03:43.286Z,26.70
2018-08-11T14:08:26.988Z,25.50
2018-08-11T14:13:10.809Z,25.40
2018-08-11T14:17:54.637Z,25.40
2018-08-11T14:22:38.801Z,25.30
2018-08-11T14:27:23.271Z,25.00
2018-08-11T14:32:07.276Z,25.00
2018-08-11T14:36:51.274Z,25.50
2018-08-11T14:41:34.989Z,25.20
2018-08-11T14:46:18.755Z,25.40
2018-08-11T14:51:02.624Z,25.90
2018-08-11T14:55:46.505Z,25.80
2018-08-11T15:00:30.360Z,25.20
2018-08-11T15:05:14.215Z,25.30
2018-08-11T15:09:57.924Z,25.00
2018-08-11T15:14:42.439Z,25.50
2018-08-11T15:19:26.459Z,25.70
2018-08-11T15:24:10.323Z,25.70
2018-08-11T15:28:54.416Z,26.30
2018-08-11T15:33:38.320Z,26.90
2018-08-11T15:38:22.375Z,27.00
2018-08-11T15:43:06.444Z,26.20
2018-08-11T15:47:50.379Z,25.60
2018-08-11T15:52:34.253Z,25.10
2018-08-11T15:57:18.306Z,25.70
2018-08-11T16:02:02.067Z,26.10
2018-08-11T16:06:45.798Z,26.80
2018-08-11T16:11:29.806Z,26.90
2018-08-11T16:16:13.572Z,27.00
2018-08-11T16:20:57.377Z,27.80
2018-08-11T16:25:41.139Z,28.00
2018-08-11T16:30:25.013Z,26.90
2018-08-11T16:35:09.250Z,26.70
2018-08-11T16:39:53.077Z,27.30
2018-08-11T16:44:36.876Z,27.50
2018-08-11T16:49:20.779Z,26.90
2018-08-11T16:54:04.654Z,27.00
2018-08-11T16:58:48.397Z,27.30
2018-08-11T17:03:32.223Z,27.60
2018-08-11T17:08:16.185Z,27.80
2018-08-11T17:12:59.978Z,28.40
2018-08-11T17:17:43.921Z,28.20
2018-08-11T17:22:27.840Z,27.30
2018-08-11T17:27:11.748Z,26.50
2018-08-11T17:31:55.586Z,26.60
2018-08-11T17:36:39.382Z,25.90
2018-08-11T17:41:23.215Z,25.30
2018-08-11T17:46:07.110Z,24.00
2018-08-11T17:50:51.185Z,23.10
2018-08-11T17:55:35.209Z,22.30
2018-08-11T18:00:19.226Z,21.90
2018-08-11T18:05:03.261Z,21.40
2018-08-11T18:09:46.995Z,21.10
2018-08-11T18:14:30.747Z,20.90
2018-08-11T18:19:14.866Z,20.50
2018-08-11T18:23:58.791Z,20.40
2018-08-11T18:28:42.564Z,20.10
2018-08-11T18:33:26.683Z,19.80
2018-08-11T18:38:18.142Z,19.50
2018-08-11T18:43:02.027Z,19.20
2018-08-11T18:47:45.967Z,19.00
2018-08-11T18:52:30.074Z,18.80
2018-08-11T18:57:14.286Z,18.60
2018-08-11T19:01:58.713Z,18.40
2018-08-11T19:06:42.851Z,18.30
2018-08-11T19:11:26.767Z,18.20
2018-08-11T19:16:10.767Z,18.10
2018-08-11T19:20:55.063Z,17.80
2018-08-11T19:25:39.359Z,17.70
2018-08-11T19:30:23.365Z,17.80
2018-08-11T19:35:07.683Z,17.90
2018-08-11T19:39:56.363Z,17.90
2018-08-11T19:44:40.571Z,17.90
2018-08-11T19:49:24.745Z,17.70
2018-08-11T19:54:08.856Z,17.40
2018-08-11T19:58:52.863Z,17.10
2018-08-11T20:03:36.909Z,17.00
2018-08-11T20:08:21.147Z,16.90
2018-08-11T20:13:06.443Z,16.70
2018-08-11T20:17:50.683Z,16.50
2018-08-11T20:22:35.593Z,16.50
2018-08-11T20:27:19.956Z,16.30
2018-08-11T20:32:04.377Z,16.00
2018-08-11T20:36:48.647Z,15.80
2018-08-11T20:41:33.418Z,15.50
2018-08-11T20:46:18.430Z,15.40
2018-08-11T20:51:02.635Z,15.30
2018-08-11T20:55:47.146Z,15.30
2018-08-11T21:00:32.447Z,15.30
2018-08-11T21:05:16.799Z,15.20
2018-08-11T21:10:01.374Z,15.00
2018-08-11T21:26:31.574Z,14.40
2018-08-11T21:31:37.137Z,14.20
2018-08-11T21:36:44.272Z,14.30
2018-08-11T21:41:28.725Z,14.20
2018-08-11T21:46:13.824Z,14.10
2018-08-11T21:51:03.593Z,14.50
2018-08-11T22:11:10.171Z,14.70
2018-08-11T22:21:08.412Z,14.90
2018-08-11T22:26:01.049Z,14.90
2018-08-11T22:30:48.337Z,14.80
2018-08-11T22:35:46.984Z,14.80
2018-08-11T22:40:33.131Z,14.80
2018-08-11T22:50:59.454Z,14.40
2018-08-11T23:06:32.924Z,14.20
2018-08-11T23:11:17.540Z,14.30
2018-08-11T23:16:02.029Z,14.30
2018-08-11T23:20:45.873Z,14.10
2018-08-11T23:25:31.734Z,14.00
2018-08-11T23:30:17.216Z,13.90
2018-08-11T23:35:01.040Z,13.70
2018-08-11T23:39:45.257Z,13.70
2018-08-11T23:44:29.587Z,13.70
2018-08-11T23:49:13.435Z,13.50
2018-08-11T23:53:57.508Z,13.50
2018-08-11T23:58:41.655Z,13.30
